Time;durP1;ratioP1;P1;durP2;ratioP2;P2;SDS_P1;SDS_P2;PMS_P1;PMS_P2;Temp;Humidity;BMP_temperature;BMP_pressure;BME280_temperature;BME280_humidity;BME280_pressure;Samples;Min_cycle;Max_cycle;Signal;HPM_P1;HPM_P2
2022/09/04 00:01:06;;;;;;;;;;;;;;;19.39;100.00;98530.81;5040689;28;19924;-77
2022/09/04 00:03:44;;;;;;;;;;;;;;;18.56;100.00;98537.28;5074766;28;20300;-77
2022/09/04 00:06:14;;;;;;;;;;;;;;;18.63;100.00;98545.38;5074873;28;20368;-77
2022/09/04 00:08:59;;;;;;;;;;;;;;;18.64;100.00;98546.94;5074832;28;19925;-77
2022/09/04 00:11:45;;;;;;;;;;;;;;;18.82;100.00;98545.94;5074823;28;20363;-77
2022/09/04 00:14:29;;;;;;;;;;;;;;;18.74;100.00;98545.56;5056716;28;19931;-77
2022/09/04 00:17:01;;;;;;;;;;;;;;;18.39;100.00;98552.44;5074913;28;19931;-77
2022/09/04 00:19:42;;;;;;;;;;;;;;;18.54;100.00;98553.97;5056932;28;19924;-77
2022/09/04 00:22:19;;;;;;;;;;;;;;;18.64;100.00;98546.94;5039813;28;19929;-77
2022/09/04 00:24:53;;;;;;;;;;;;;;;18.77;100.00;98535.28;5074301;28;19931;-77
2022/09/04 00:27:22;;;;;;;;;;;;;;;18.63;100.00;98545.38;5056329;28;19959;-77
2022/09/04 00:29:57;;;;;;;;;;;;;;;18.67;100.00;98551.63;5074807;28;20356;-77
2022/09/04 00:32:37;;;;;;;;;;;;;;;18.56;100.00;98557.09;5057050;28;20015;-77
2022/09/04 00:35:17;;;;;;;;;;;;;;;18.72;100.00;98559.41;5074789;28;19947;-77
2022/09/04 00:37:50;;;;;;;;;;;;;;;18.65;100.00;98559.81;5074522;28;19924;-77
2022/09/04 00:40:36;;;;;;;;;;;;;;;18.00;100.00;98574.31;5056767;28;19925;-77
2022/09/04 00:43:22;;;;;;;;;;;;;;;17.96;100.00;98577.31;5074622;28;19925;-77
2022/09/04 00:45:48;;;;;;;;;;;;;;;17.54;100.00;98573.13;5074433;28;20330;-77
2022/09/04 00:48:30;;;;;;;;;;;;;;;18.14;100.00;98573.56;5074517;28;20019;-77
2022/09/04 00:50:58;;;;;;;;;;;;;;;18.17;100.00;98575.41;5074105;28;19970;-77
2022/09/04 00:53:44;;;;;;;;;;;;;;;18.22;100.00;98577.53;5056599;28;20404;-77
2022/09/04 00:56:30;;;;;;;;;;;;;;;18.23;100.00;98578.31;5074104;28;19924;-77
2022/09/04 00:59:16;;;;;;;;;;;;;;;18.05;100.00;98579.31;5073792;28;19928;-77
2022/09/04 01:01:46;;;;;;;;;;;;;;;18.37;100.00;98578.38;5055181;28;20368;-77
2022/09/04 01:04:24;;;;;;;;;;;;;;;18.60;100.00;98569.00;5072774;28;19932;-77
2022/09/04 01:06:55;;;;;;;;;;;;;;;18.87;100.00;98568.66;5054962;28;19971;-77
2022/09/04 01:09:41;;;;;;;;;;;;;;;18.74;100.00;98573.84;5072842;28;19928;-77
2022/09/04 01:12:18;;;;;;;;;;;;;;;18.04;100.00;98574.88;5073086;28;19932;-77
2022/09/04 01:14:54;;;;;;;;;;;;;;;18.47;100.00;98570.56;5073159;28;20275;-77
2022/09/04 01:17:41;;;;;;;;;;;;;;;18.27;100.00;98578.91;5073852;28;19936;-77
2022/09/04 01:20:32;;;;;;;;;;;;;;;17.98;100.00;98582.47;5073588;28;19925;-77
2022/09/04 01:23:05;;;;;;;;;;;;;;;18.52;100.00;98576.34;5074050;28;19951;-77
2022/09/04 01:25:51;;;;;;;;;;;;;;;18.33;100.00;98577.75;5073868;28;19924;-77
2022/09/04 01:28:38;;;;;;;;;;;;;;;18.61;100.00;98575.44;5073967;28;19931;-77
2022/09/04 01:31:23;;;;;;;;;;;;;;;18.71;100.00;98574.84;5073954;28;19924;-77
2022/09/04 01:34:09;;;;;;;;;;;;;;;19.00;100.00;98579.66;5073886;28;20256;-77
2022/09/04 01:36:46;;;;;;;;;;;;;;;19.14;100.00;98579.63;5073918;28;20020;-77
2022/09/04 01:39:13;;;;;;;;;;;;;;;18.82;100.00;98577.84;5073722;28;19924;-77
2022/09/04 01:41:44;;;;;;;;;;;;;;;18.82;100.00;98575.03;5073775;28;19924;-77
2022/09/04 01:44:11;;;;;;;;;;;;;;;18.91;100.00;98572.06;5056177;28;19940;-77
2022/09/04 01:46:38;;;;;;;;;;;;;;;18.83;100.00;98576.56;5073682;28;19978;-77
2022/09/04 01:49:06;;;;;;;;;;;;;;;18.98;100.00;98571.66;5055560;28;19924;-77
2022/09/04 01:51:33;;;;;;;;;;;;;;;18.84;100.00;98574.53;5073581;28;20018;-77
2022/09/04 01:54:07;;;;;;;;;;;;;;;18.88;100.00;98578.72;5055824;28;19978;-77
2022/09/04 01:56:39;;;;;;;;;;;;;;;19.19;100.00;98578.16;5073705;28;19924;-77
2022/09/04 01:59:14;;;;;;;;;;;;;;;19.12;100.00;98572.88;5073573;28;19931;-77
2022/09/04 02:01:48;;;;;;;;;;;;;;;18.98;100.00;98574.50;5056023;28;19925;-77
2022/09/04 02:04:19;;;;;;;;;;;;;;;18.94;100.00;98573.94;5073286;28;20536;-77
2022/09/04 02:06:46;;;;;;;;;;;;;;;19.03;100.00;98570.97;5073611;28;19932;-77
2022/09/04 02:09:35;;;;;;;;;;;;;;;19.16;100.00;98570.66;5077344;28;20268;-77
2022/09/04 02:12:10;;;;;;;;;;;;;;;18.79;100.00;98578.84;5077713;28;19947;-77
2022/09/04 02:14:38;;;;;;;;;;;;;;;18.71;100.00;98577.66;5077666;28;19928;-77
2022/09/04 02:17:07;;;;;;;;;;;;;;;18.92;100.00;98573.63;5077433;28;19970;-77
2022/09/04 02:19:53;;;;;;;;;;;;;;;18.92;100.00;98578.50;5077219;28;19924;-77
2022/09/04 02:22:20;;;;;;;;;;;;;;;19.20;100.00;98569.16;5059579;28;19940;-77
2022/09/04 02:24:54;;;;;;;;;;;;;;;18.96;100.00;98568.53;5077377;28;19925;-77
2022/09/04 02:27:33;;;;;;;;;;;;;;;19.15;100.00;98564.19;5043177;28;19935;-77
2022/09/04 02:30:06;;;;;;;;;;;;;;;18.70;100.00;98567.63;5077442;28;19954;-77
2022/09/04 02:32:37;;;;;;;;;;;;;;;18.66;100.00;98589.66;5076876;28;19993;-77
2022/09/04 02:35:10;;;;;;;;;;;;;;;18.76;100.00;98579.81;5077494;28;20279;-77
2022/09/04 02:37:52;;;;;;;;;;;;;;;18.92;100.00;98584.94;5077071;28;19925;-77
2022/09/04 02:40:58;;;;;;;;;;;;;;;18.97;100.00;98564.44;5077183;28;19928;-78
2022/09/04 02:43:40;;;;;;;;;;;;;;;19.10;100.00;98573.38;5015096;28;19929;-78
2022/09/04 02:46:31;;;;;;;;;;;;;;;19.02;100.00;98574.28;4998620;28;20045;-78
2022/09/04 02:49:07;;;;;;;;;;;;;;;18.86;100.00;98581.25;4975555;28;19930;-78
2022/09/04 02:51:55;;;;;;;;;;;;;;;18.94;100.00;98582.41;4975726;28;19945;-78
2022/09/04 02:54:36;;;;;;;;;;;;;;;18.95;100.00;98583.19;4975863;28;19926;-78
2022/09/04 02:57:10;;;;;;;;;;;;;;;18.92;100.00;98579.28;4975783;28;20466;-78
2022/09/04 02:59:54;;;;;;;;;;;;;;;18.91;100.00;98574.13;4975695;28;19927;-77
2022/09/04 03:02:30;;;;;;;;;;;;;;;18.94;100.00;98573.94;4975408;28;20410;-78
2022/09/04 03:05:07;;;;;;;;;;;;;;;18.95;100.00;98566.19;4975683;28;19926;-78
2022/09/04 03:07:36;;;;;;;;;;;;;;;18.43;100.00;98570.78;4975399;28;20461;-78
2022/09/04 03:10:19;;;;;;;;;;;;;;;18.77;100.00;98584.19;4975473;28;20270;-78
2022/09/04 03:13:05;;;;;;;;;;;;;;;18.70;100.00;98578.94;4975512;28;19948;-78
2022/09/04 03:15:40;;;;;;;;;;;;;;;18.79;100.00;98570.34;5014551;28;19930;-78
2022/09/04 03:18:17;;;;;;;;;;;;;;;18.85;100.00;98570.41;4997332;28;19925;-77
2022/09/04 03:20:51;;;;;;;;;;;;;;;19.03;100.00;98573.81;4998059;28;20578;-78
2022/09/04 03:23:26;;;;;;;;;;;;;;;18.91;100.00;98574.13;5014508;28;19925;-77
2022/09/04 03:25:56;;;;;;;;;;;;;;;19.01;100.00;98569.88;5041190;28;19924;-78
2022/09/04 03:28:34;;;;;;;;;;;;;;;19.14;100.00;98561.84;5076118;28;20410;-78
2022/09/04 03:31:18;;;;;;;;;;;;;;;19.20;100.00;98569.16;5075446;28;19925;-77
2022/09/04 03:33:49;;;;;;;;;;;;;;;19.20;100.00;98566.34;5075481;28;19924;-78
2022/09/04 03:36:24;;;;;;;;;;;;;;;19.12;100.00;98570.84;5075535;28;19978;-78
2022/09/04 03:38:51;;;;;;;;;;;;;;;19.06;100.00;98564.31;5075397;28;20359;-77
2022/09/04 03:41:29;;;;;;;;;;;;;;;18.99;100.00;98564.72;5075549;28;19929;-77
2022/09/04 03:43:58;;;;;;;;;;;;;;;18.93;100.00;98563.84;5075802;28;19925;-77
2022/09/04 03:46:25;;;;;;;;;;;;;;;18.99;100.00;98556.22;5075208;28;19924;-77
2022/09/04 03:48:55;;;;;;;;;;;;;;;19.00;100.00;98560.63;5075551;28;20014;-78
2022/09/04 03:51:43;;;;;;;;;;;;;;;19.04;100.00;98552.69;5075244;28;19925;-77
2022/09/04 03:54:24;;;;;;;;;;;;;;;18.52;100.00;98573.50;5074413;28;19928;-77
2022/09/04 03:57:07;;;;;;;;;;;;;;;18.75;100.00;98571.81;5075342;28;19924;-77
2022/09/04 03:59:42;;;;;;;;;;;;;;;19.03;100.00;98568.13;5074979;28;19924;-77
2022/09/04 04:02:35;;;;;;;;;;;;;;;19.05;100.00;98565.56;5074926;28;20264;-78
2022/09/04 04:05:17;;;;;;;;;;;;;;;18.93;100.00;98568.75;5075756;28;19924;-77
2022/09/04 04:08:14;;;;;;;;;;;;;;;18.62;100.00;98560.81;5041180;28;19924;-78
2022/09/04 04:11:00;;;;;;;;;;;;;;;18.99;100.00;98561.88;5049119;28;19924;-77
2022/09/04 04:13:44;;;;;;;;;;;;;;;18.74;100.00;98568.19;5075670;28;19946;-77
2022/09/04 04:16:39;;;;;;;;;;;;;;;18.95;100.00;98566.97;5075429;28;19925;-78
2022/09/04 04:19:15;;;;;;;;;;;;;;;18.46;100.00;98563.34;5035823;28;19929;-77
2022/09/04 04:21:53;;;;;;;;;;;;;;;18.77;100.00;98572.09;5075239;28;19925;-77
2022/09/04 04:24:20;;;;;;;;;;;;;;;18.66;100.00;98572.69;5075314;28;19936;-77
2022/09/04 04:26:55;;;;;;;;;;;;;;;18.67;100.00;98568.59;5075221;28;20078;-77
2022/09/04 04:29:36;;;;;;;;;;;;;;;18.90;100.00;98570.50;5057128;28;20276;-77
2022/09/04 04:32:15;;;;;;;;;;;;;;;18.96;100.00;98567.78;5074772;28;19948;-78
2022/09/04 04:34:52;;;;;;;;;;;;;;;18.85;100.00;98567.59;5075164;28;19925;-78
2022/09/04 04:37:35;;;;;;;;;;;;;;;19.02;100.00;98571.47;5075038;28;19924;-77
2022/09/04 04:40:17;;;;;;;;;;;;;;;18.87;100.00;98579.97;5074736;28;20333;-78
2022/09/04 04:42:52;;;;;;;;;;;;;;;18.32;100.00;98576.19;5073992;28;20017;-77
2022/09/04 04:48:28;;;;;;;;;;;;;;;18.94;100.00;98568.25;5073965;28;19924;-77
2022/09/04 04:50:58;;;;;;;;;;;;;;;18.96;100.00;98585.50;5056423;28;19925;-78
2022/09/04 04:53:31;;;;;;;;;;;;;;;19.05;100.00;98579.72;5056334;28;19925;-77
2022/09/04 04:56:13;;;;;;;;;;;;;;;19.12;100.00;98584.22;5056549;28;19982;-77
2022/09/04 04:58:52;;;;;;;;;;;;;;;19.15;100.00;98581.19;5073671;28;19925;-78
2022/09/04 05:01:31;;;;;;;;;;;;;;;19.08;100.00;98592.94;5074332;28;19925;-78
2022/09/04 05:04:16;;;;;;;;;;;;;;;19.00;100.00;98586.13;5056879;28;19928;-78
2022/09/04 05:06:51;;;;;;;;;;;;;;;19.15;100.00;98586.84;5074309;28;19994;-78
2022/09/04 05:09:31;;;;;;;;;;;;;;;18.81;100.00;98584.00;5072925;28;19925;-77
2022/09/04 05:12:04;;;;;;;;;;;;;;;18.94;100.00;98587.28;5073888;28;20009;-77
2022/09/04 05:14:30;;;;;;;;;;;;;;;19.08;100.00;98580.81;5074324;28;19928;-77
2022/09/04 05:17:19;;;;;;;;;;;;;;;19.09;100.00;98588.81;5039782;28;19924;-78
2022/09/04 05:19:51;;;;;;;;;;;;;;;19.10;100.00;98583.94;5074033;28;19931;-78
2022/09/04 05:22:21;;;;;;;;;;;;;;;18.26;100.00;98589.47;5055751;28;19933;-77
2022/09/04 05:24:59;;;;;;;;;;;;;;;18.79;100.00;98598.66;5074106;28;20314;-78
2022/09/04 05:27:27;;;;;;;;;;;;;;;18.87;100.00;98596.19;5055750;28;19959;-77
2022/09/04 05:30:03;;;;;;;;;;;;;;;18.95;100.00;98598.13;5073912;28;20347;-77
2022/09/04 05:32:37;;;;;;;;;;;;;;;18.84;100.00;98600.00;5073834;28;19931;-78
2022/09/04 05:35:13;;;;;;;;;;;;;;;19.08;100.00;98609.94;5056250;28;19989;-78
2022/09/04 05:37:57;;;;;;;;;;;;;;;19.23;100.00;98599.34;5073905;28;19994;-78
2022/09/04 05:40:29;;;;;;;;;;;;;;;18.96;100.00;98605.34;5073640;28;19924;-78
2022/09/04 05:42:57;;;;;;;;;;;;;;;19.16;100.00;98611.06;5072584;28;19925;-76
2022/09/04 05:45:24;;;;;;;;;;;;;;;19.09;100.00;98599.34;5073764;28;19932;-77
2022/09/04 05:47:59;;;;;;;;;;;;;;;18.76;100.00;98610.16;5055264;28;19929;-78
2022/09/04 05:50:39;;;;;;;;;;;;;;;18.50;100.00;98626.94;5056020;28;19924;-77
2022/09/04 05:53:22;;;;;;;;;;;;;;;18.93;100.00;98648.78;5055811;28;19924;-77
2022/09/04 05:55:49;;;;;;;;;;;;;;;18.90;100.00;98646.94;5073210;28;20376;-77
2022/09/04 05:58:16;;;;;;;;;;;;;;;18.77;100.00;98660.59;5073660;28;19931;-77
2022/09/04 06:01:02;;;;;;;;;;;;;;;18.93;100.00;98662.16;5073588;28;20336;-77
2022/09/04 06:03:32;;;;;;;;;;;;;;;18.40;100.00;98662.25;5073699;28;19925;-77
2022/09/04 06:06:03;;;;;;;;;;;;;;;18.59;100.00;98674.94;5039023;28;19924;-77
2022/09/04 06:08:40;;;;;;;;;;;;;;;18.72;100.00;98661.28;5055800;28;19944;-77
2022/09/04 06:11:33;;;;;;;;;;;;;;;18.39;100.00;98665.56;5055518;28;19929;-78
2022/09/04 06:14:00;;;;;;;;;;;;;;;18.02;100.00;98667.91;5055720;28;20055;-78
2022/09/04 06:16:33;;;;;;;;;;;;;;;18.26;100.00;98673.50;5055599;28;19928;-77
2022/09/04 06:19:30;;;;;;;;;;;;;;;18.23;100.00;98672.44;5073495;28;19952;-78
2022/09/04 06:22:09;;;;;;;;;;;;;;;18.58;100.00;98672.59;5073086;28;19924;-78
2022/09/04 06:24:55;;;;;;;;;;;;;;;18.64;100.00;98671.44;5073136;28;20036;-78
2022/09/04 06:27:24;;;;;;;;;;;;;;;18.66;100.00;98671.72;5073269;28;19928;-78
2022/09/04 06:30:05;;;;;;;;;;;;;;;18.45;100.00;98660.81;5073293;28;20338;-77
2022/09/04 06:32:35;;;;;;;;;;;;;;;18.80;100.00;98659.63;5055343;28;19928;-77
2022/09/04 06:35:14;;;;;;;;;;;;;;;18.74;100.00;98643.81;5073442;28;19933;-78
2022/09/04 06:37:47;;;;;;;;;;;;;;;18.92;100.00;98646.44;5073260;28;20383;-78
2022/09/04 06:40:23;;;;;;;;;;;;;;;19.07;100.00;98641.53;5072820;28;19970;-78
2022/09/04 06:43:09;;;;;;;;;;;;;;;18.73;100.00;98640.22;5055333;28;20368;-77
2022/09/04 06:45:44;;;;;;;;;;;;;;;19.08;100.00;98640.28;5073208;28;19949;-77
2022/09/04 06:48:37;;;;;;;;;;;;;;;19.18;100.00;98648.16;5073061;28;19936;-78
2022/09/04 06:51:27;;;;;;;;;;;;;;;19.18;100.00;98653.84;5052442;28;19959;-77
2022/09/04 06:53:54;;;;;;;;;;;;;;;19.07;100.00;98653.66;5073393;28;20318;-77
2022/09/04 06:56:36;;;;;;;;;;;;;;;18.69;100.00;98664.31;5076740;28;20544;-78
2022/09/04 06:59:15;;;;;;;;;;;;;;;18.87;100.00;98673.38;5076623;28;19931;-77
2022/09/04 07:01:42;;;;;;;;;;;;;;;19.09;100.00;98656.78;5076618;28;19997;-77
2022/09/04 07:04:24;;;;;;;;;;;;;;;18.84;100.00;98657.38;5076846;28;20359;-77
2022/09/04 07:06:51;;;;;;;;;;;;;;;19.14;100.00;98653.25;5042250;28;19929;-78
2022/09/04 07:09:22;;;;;;;;;;;;;;;19.34;100.00;98663.91;5076206;28;19986;-77
2022/09/04 07:12:07;;;;;;;;;;;;;;;19.21;100.00;98660.56;5076408;28;19924;-78
2022/09/04 07:14:40;;;;;;;;;;;;;;;19.34;100.00;98656.16;5058784;28;19925;-77
2022/09/04 07:17:22;;;;;;;;;;;;;;;19.25;100.00;98658.31;5058653;28;20275;-77
2022/09/04 07:20:11;;;;;;;;;;;;;;;18.82;100.00;98674.09;5042010;28;19947;-77
2022/09/04 07:22:50;;;;;;;;;;;;;;;19.12;100.00;98683.31;5058155;28;19924;-77
2022/09/04 07:25:25;;;;;;;;;;;;;;;19.46;100.00;98680.53;5076296;28;19932;-77
2022/09/04 07:28:01;;;;;;;;;;;;;;;19.35;100.00;98674.72;5041888;28;19924;-77
2022/09/04 07:30:31;;;;;;;;;;;;;;;19.26;100.00;98677.66;5076072;28;19947;-78
2022/09/04 07:33:03;;;;;;;;;;;;;;;19.44;100.00;98677.44;5076179;28;20371;-77
2022/09/04 07:35:38;;;;;;;;;;;;;;;19.45;100.00;98684.66;5075920;28;19924;-77
2022/09/04 07:38:20;;;;;;;;;;;;;;;19.32;100.00;98681.38;5057927;28;20359;-77
2022/09/04 07:40:52;;;;;;;;;;;;;;;19.48;100.00;98678.00;5058013;28;19960;-78
2022/09/04 07:43:28;;;;;;;;;;;;;;;19.31;100.00;98682.63;5075888;28;20292;-79
2022/09/04 07:46:33;;;;;;;;;;;;;;;19.52;100.00;98692.75;5076078;28;20018;-78
2022/09/04 07:49:05;;;;;;;;;;;;;;;19.57;100.00;98683.56;5013753;28;19932;-78
2022/09/04 07:51:36;;;;;;;;;;;;;;;19.59;100.00;98686.69;5013314;28;20360;-78
2022/09/04 07:54:16;;;;;;;;;;;;;;;19.58;100.00;98679.44;5013709;28;19975;-78
2022/09/04 07:57:02;;;;;;;;;;;;;;;19.88;100.00;98682.16;5013688;28;19953;-78
2022/09/04 07:59:29;;;;;;;;;;;;;;;19.67;100.00;98699.16;4997198;28;19925;-78
2022/09/04 08:02:14;;;;;;;;;;;;;;;19.86;100.00;98691.16;5013421;28;19969;-77
2022/09/04 08:04:50;;;;;;;;;;;;;;;19.36;100.00;98703.81;5012893;28;20444;-78
2022/09/04 08:07:27;;;;;;;;;;;;;;;19.72;100.00;98703.31;5012871;28;19925;-78
2022/09/04 08:09:54;;;;;;;;;;;;;;;19.81;100.00;98716.63;5013383;28;19933;-78
2022/09/04 08:12:30;;;;;;;;;;;;;;;19.96;100.00;98720.16;4996781;28;20731;-78
2022/09/04 08:15:15;;;;;;;;;;;;;;;20.09;100.00;98726.25;5013341;28;19932;-78
2022/09/04 08:17:51;;;;;;;;;;;;;;;19.63;100.00;98729.75;5013374;28;20317;-78
2022/09/04 08:20:30;;;;;;;;;;;;;;;18.81;100.00;98729.09;5056430;28;19928;-78
2022/09/04 08:23:00;;;;;;;;;;;;;;;19.21;100.00;98743.47;5057286;28;20462;-78
2022/09/04 08:25:30;;;;;;;;;;;;;;;18.76;100.00;98740.34;5057427;28;20402;-77
2022/09/04 08:27:58;;;;;;;;;;;;;;;19.15;100.00;98728.44;5074976;28;20374;-78
2022/09/04 08:30:30;;;;;;;;;;;;;;;18.80;100.00;98755.84;5074900;28;19932;-78
2022/09/04 08:33:12;;;;;;;;;;;;;;;19.26;100.00;98761.84;5074919;28;20455;-78
2022/09/04 08:35:47;;;;;;;;;;;;;;;19.40;100.00;98755.41;5074573;28;19978;-78
2022/09/04 08:38:33;;;;;;;;;;;;;;;18.97;100.00;98762.63;5057159;28;19932;-77
2022/09/04 08:41:05;;;;;;;;;;;;;;;19.34;100.00;98769.47;5056851;28;19924;-79
2022/09/04 08:43:52;;;;;;;;;;;;;;;19.39;100.00;98776.50;5074744;28;20035;-84
2022/09/04 08:46:47;;;;;;;;;;;;;;;18.87;100.00;98766.03;5056677;28;20299;-78
2022/09/04 08:49:17;;;;;;;;;;;;;;;19.46;100.00;98762.72;5012168;28;19932;-79
2022/09/04 08:52:03;;;;;;;;;;;;;;;19.08;100.00;98779.81;5012528;28;20375;-79
2022/09/04 08:54:33;;;;;;;;;;;;;;;19.03;100.00;98782.53;5012529;28;19968;-79
2022/09/04 08:57:18;;;;;;;;;;;;;;;18.85;100.00;98782.72;5012564;28;19926;-79
2022/09/04 09:00:08;;;;;;;;;;;;;;;19.38;100.00;98781.41;4996077;28;19925;-79
2022/09/04 09:02:35;;;;;;;;;;;;;;;19.46;100.00;98785.38;4979930;28;19925;-78
2022/09/04 09:05:02;;;;;;;;;;;;;;;19.76;100.00;98776.84;5012204;28;19960;-79
2022/09/04 09:07:59;;;;;;;;;;;;;;;20.13;100.00;98777.94;5012078;28;20075;-80
2022/09/04 09:10:32;;;;;;;;;;;;;;;20.12;100.00;98787.66;4999996;28;19926;-79
2022/09/04 09:13:01;;;;;;;;;;;;;;;20.09;100.00;98786.63;5012274;28;19929;-80
2022/09/04 09:15:46;;;;;;;;;;;;;;;20.14;100.00;98785.94;4995816;28;20456;-80
2022/09/04 09:18:32;;;;;;;;;;;;;;;20.49;100.00;98780.22;5011709;28;19925;-80
2022/09/04 09:21:02;;;;;;;;;;;;;;;20.58;100.00;98785.75;5011945;28;20357;-80
2022/09/04 09:23:38;;;;;;;;;;;;;;;20.90;100.00;98761.84;4995693;28;19933;-80
2022/09/04 09:26:16;;;;;;;;;;;;;;;20.96;100.00;98768.41;5038783;28;19924;-80
2022/09/04 09:28:58;;;;;;;;;;;;;;;21.10;100.00;98761.81;5073898;28;19925;-80
2022/09/04 09:31:41;;;;;;;;;;;;;;;21.09;100.00;98775.25;5055988;28;20292;-80
2022/09/04 09:34:11;;;;;;;;;;;;;;;20.64;100.00;98772.41;5073716;28;19925;-80
2022/09/04 09:36:51;;;;;;;;;;;;;;;20.95;100.00;98770.44;5073940;28;19925;-80
2022/09/04 09:39:33;;;;;;;;;;;;;;;20.60;100.00;98771.84;5056010;28;19986;-80
2022/09/04 09:42:00;;;;;;;;;;;;;;;20.45;100.00;98793.81;5056123;28;19925;-80
2022/09/04 09:44:42;;;;;;;;;;;;;;;20.83;100.00;98782.16;5055839;28;20024;-80
2022/09/04 09:47:31;;;;;;;;;;;;;;;20.39;100.00;98798.63;5039515;28;19931;-80
2022/09/04 09:50:20;;;;;;;;;;;;;;;20.91;100.00;98791.78;5055867;28;20429;-80
2022/09/04 09:52:56;;;;;;;;;;;;;;;20.53;100.00;98800.63;5073973;28;19924;-80
2022/09/04 09:55:23;;;;;;;;;;;;;;;20.65;100.00;98799.50;5055919;28;19935;-80
2022/09/04 09:58:11;;;;;;;;;;;;;;;20.73;100.00;98792.13;5056047;28;20383;-80
2022/09/04 10:00:52;;;;;;;;;;;;;;;21.07;100.00;98789.16;5049054;28;19940;-81
2022/09/04 10:03:39;;;;;;;;;;;;;;;20.93;100.00;98783.56;5073409;28;20310;-80
2022/09/04 10:06:12;;;;;;;;;;;;;;;21.04;100.00;98789.38;5073725;28;19924;-80
2022/09/04 10:08:57;;;;;;;;;;;;;;;20.96;100.00;98797.56;5073338;28;19925;-79
2022/09/04 10:11:47;;;;;;;;;;;;;;;21.14;100.00;98793.63;5055469;28;19925;-80
2022/09/04 10:14:33;;;;;;;;;;;;;;;20.56;100.00;98779.78;5073458;28;19925;-79
2022/09/04 10:17:21;;;;;;;;;;;;;;;20.61;100.00;98794.06;5075944;28;19924;-79
2022/09/04 10:20:08;;;;;;;;;;;;;;;20.85;100.00;98793.78;5055579;28;19931;-79
2022/09/04 10:22:41;;;;;;;;;;;;;;;20.67;100.00;98791.28;5073270;28;19925;-80
2022/09/04 10:25:23;;;;;;;;;;;;;;;20.76;100.00;98788.28;5055773;28;19931;-80
2022/09/04 10:28:06;;;;;;;;;;;;;;;21.07;100.00;98799.72;5073234;28;20322;-80
2022/09/04 10:30:52;;;;;;;;;;;;;;;21.20;100.00;98803.75;5077301;28;19935;-79
2022/09/04 10:33:30;;;;;;;;;;;;;;;21.24;100.00;98801.47;5077362;28;19932;-80
2022/09/04 10:36:16;;;;;;;;;;;;;;;21.55;100.00;98809.25;5077219;28;19931;-81
2022/09/04 10:42:00;;;;;;;;;;;;;;;21.42;100.00;98803.19;5077090;28;20284;-79
2022/09/04 10:44:33;;;;;;;;;;;;;;;21.63;100.00;98813.19;5076859;28;19963;-82
2022/09/04 10:47:03;;;;;;;;;;;;;;;21.56;100.00;98812.88;5076944;28;19925;-79
2022/09/04 10:49:39;;;;;;;;;;;;;;;20.97;100.00;98826.75;5078362;28;20308;-80
2022/09/04 10:52:16;;;;;;;;;;;;;;;21.27;100.00;98820.38;5090192;28;19924;-80
2022/09/04 10:54:55;;;;;;;;;;;;;;;20.40;100.00;98837.09;5072071;28;19924;-80
2022/09/04 10:57:22;;;;;;;;;;;;;;;20.26;100.00;98827.38;5076462;28;19928;-80
2022/09/04 11:00:12;;;;;;;;;;;;;;;20.92;100.00;98833.09;5077116;28;20398;-80
2022/09/04 11:03:01;;;;;;;;;;;;;;;21.17;100.00;98838.06;5076979;28;19925;-80
2022/09/04 11:05:47;;;;;;;;;;;;;;;21.25;100.00;98839.19;5091255;28;20030;-80
2022/09/04 11:08:20;;;;;;;;;;;;;;;21.36;100.00;98844.97;5090508;28;19931;-80
2022/09/04 11:10:51;;;;;;;;;;;;;;;21.37;100.00;98844.47;5069992;28;20383;-80
2022/09/04 11:13:38;;;;;;;;;;;;;;;21.57;100.00;98842.88;5076627;28;20284;-80
2022/09/04 11:16:11;;;;;;;;;;;;;;;20.96;100.00;98845.84;5064996;28;19925;-80
2022/09/04 11:18:40;;;;;;;;;;;;;;;21.08;100.00;98853.19;5066277;28;19931;-80
2022/09/04 11:21:07;;;;;;;;;;;;;;;21.48;100.00;98840.97;5092021;28;20007;-81
2022/09/04 11:23:47;;;;;;;;;;;;;;;21.47;100.00;98842.25;5078952;28;20022;-80
2022/09/04 11:26:35;;;;;;;;;;;;;;;20.95;100.00;98849.19;5078834;28;19924;-81
2022/09/04 11:29:11;;;;;;;;;;;;;;;21.37;100.00;98852.25;5077976;28;19924;-81
2022/09/04 11:31:58;;;;;;;;;;;;;;;21.40;100.00;98845.56;5078529;28;19969;-81
2022/09/04 11:34:44;;;;;;;;;;;;;;;21.17;100.00;98855.13;5078097;28;20359;-79
2022/09/04 11:37:17;;;;;;;;;;;;;;;21.38;100.00;98831.06;5096843;28;19930;-80
2022/09/04 11:39:44;;;;;;;;;;;;;;;21.86;100.00;98842.59;5078066;28;20337;-81
2022/09/04 11:42:11;;;;;;;;;;;;;;;22.16;100.00;98850.34;5086054;28;19924;-79
2022/09/04 11:44:59;;;;;;;;;;;;;;;22.09;100.00;98838.66;5063918;28;20423;-80
2022/09/04 11:47:29;;;;;;;;;;;;;;;21.58;100.00;98844.41;5057928;28;19963;-78
2022/09/04 11:50:03;;;;;;;;;;;;;;;21.79;100.00;98841.03;5077586;28;19938;-79
2022/09/04 11:52:49;;;;;;;;;;;;;;;21.06;100.00;98857.84;5045078;28;19931;-78
2022/09/04 11:55:49;;;;;;;;;;;;;;;21.81;100.00;98846.19;5066539;28;19975;-78
2022/09/04 11:58:21;;;;;;;;;;;;;;;22.08;100.00;98860.66;5038314;28;19928;-81
2022/09/04 12:00:57;;;;;;;;;;;;;;;21.95;100.00;98874.50;5075708;28;20019;-79
2022/09/04 12:03:30;;;;;;;;;;;;;;;22.15;100.00;98877.25;5069990;28;19951;-79
2022/09/04 12:06:00;;;;;;;;;;;;;;;21.98;100.00;98873.47;5061227;28;19925;-78
2022/09/04 12:08:34;;;;;;;;;;;;;;;22.04;100.00;98879.22;5078053;28;20022;-84
2022/09/04 12:11:20;;;;;;;;;;;;;;;21.60;100.00;98861.75;5060723;28;19928;-79
2022/09/04 12:14:13;;;;;;;;;;;;;;;21.39;100.00;98880.91;5095418;28;19924;-78
2022/09/04 12:17:00;;;;;;;;;;;;;;;21.19;100.00;98901.63;5092226;28;20466;-76
2022/09/04 12:19:46;;;;;;;;;;;;;;;21.06;100.00;98889.06;5095771;28;19947;-78
2022/09/04 12:22:37;;;;;;;;;;;;;;;21.14;100.00;98879.59;5077498;28;19974;-77
2022/09/04 12:25:12;;;;;;;;;;;;;;;21.07;100.00;98880.06;5013030;28;19980;-76
2022/09/04 12:28:03;;;;;;;;;;;;;;;21.49;100.00;98890.06;4996388;28;20413;-76
2022/09/04 12:30:49;;;;;;;;;;;;;;;21.70;100.00;98885.88;4996387;28;19932;-77
2022/09/04 12:33:39;;;;;;;;;;;;;;;21.70;100.00;98875.28;5001140;28;20313;-76
2022/09/04 12:36:06;;;;;;;;;;;;;;;21.27;100.00;98879.25;4916065;29;20025;-76
2022/09/04 12:38:37;;;;;;;;;;;;;;;21.84;100.00;98885.00;4916381;29;19966;-77
2022/09/04 12:41:04;;;;;;;;;;;;;;;22.06;100.00;98880.28;4900303;29;20338;-77
2022/09/04 12:43:33;;;;;;;;;;;;;;;22.25;100.00;98870.06;4916181;29;19927;-77
2022/09/04 12:46:04;;;;;;;;;;;;;;;22.36;100.00;98875.03;4916509;29;19927;-77
2022/09/04 12:48:37;;;;;;;;;;;;;;;21.96;100.00;98878.88;4916278;29;20341;-77
2022/09/04 12:51:20;;;;;;;;;;;;;;;22.43;100.00;98880.28;4915900;29;19930;-77
2022/09/04 12:54:02;;;;;;;;;;;;;;;22.99;100.00;98891.47;4917221;29;19934;-77
2022/09/04 12:56:40;;;;;;;;;;;;;;;23.42;100.00;98883.59;4933846;29;19955;-77
2022/09/04 12:59:17;;;;;;;;;;;;;;;23.51;100.00;98876.91;4934938;29;20018;-77
2022/09/04 13:01:59;;;;;;;;;;;;;;;23.82;100.00;98874.59;4953538;28;19930;-77
2022/09/04 13:04:48;;;;;;;;;;;;;;;23.83;100.00;98870.44;5008832;28;20476;-77
2022/09/04 13:07:26;;;;;;;;;;;;;;;22.62;100.00;98856.59;4992553;28;19977;-77
2022/09/04 13:10:12;;;;;;;;;;;;;;;23.25;100.00;98859.22;4992089;28;19929;-77
2022/09/04 13:12:45;;;;;;;;;;;;;;;23.82;100.00;98856.69;5015108;28;19931;-77
2022/09/04 13:15:23;;;;;;;;;;;;;;;23.82;100.00;98856.69;5074001;28;20015;-77
2022/09/04 13:17:51;;;;;;;;;;;;;;;23.16;100.00;98856.56;5074201;28;19924;-77
2022/09/04 13:20:28;;;;;;;;;;;;;;;22.60;100.00;98856.31;5073264;28;19924;-77
2022/09/04 13:23:10;;;;;;;;;;;;;;;22.79;100.00;98857.47;5073979;28;19978;-77
2022/09/04 13:25:58;;;;;;;;;;;;;;;23.22;100.00;98866.66;5073634;28;19960;-77
2022/09/04 13:28:38;;;;;;;;;;;;;;;23.47;100.00;98859.25;5060433;28;19928;-77
2022/09/04 13:31:23;;;;;;;;;;;;;;;22.74;100.00;98868.81;5073822;28;19924;-77
2022/09/04 13:33:52;;;;;;;;;;;;;;;22.92;100.00;98869.16;5055910;28;19925;-77
2022/09/04 13:36:38;;;;;;;;;;;;;;;22.72;100.00;98875.03;5055801;28;19939;-77